createdAt,value
2023-03-20T00:02:07.683Z,67.70
2023-03-20T00:04:37.161Z,63.30
2023-03-20T00:07:05.131Z,65.20
2023-03-20T00:09:33.856Z,65.80
2023-03-20T00:12:02.156Z,68.40
2023-03-20T00:14:30.328Z,66.10
2023-03-20T00:16:58.587Z,67.30
2023-03-20T00:19:29.362Z,66.50
2023-03-20T00:21:59.771Z,63.20
2023-03-20T00:24:27.824Z,66.40
2023-03-20T00:26:56.013Z,64.40
2023-03-20T00:29:26.160Z,60.80
2023-03-20T00:31:55.119Z,63.90
2023-03-20T00:34:25.795Z,65.50
2023-03-20T00:36:55.016Z,51.90
2023-03-20T00:39:24.707Z,54.80
2023-03-20T00:41:56.035Z,55.20
2023-03-20T00:44:27.307Z,62.20
2023-03-20T00:46:57.578Z,64.30
2023-03-20T00:49:28.948Z,61.80
2023-03-20T00:51:58.054Z,62.70
2023-03-20T00:54:27.955Z,70.00
2023-03-20T00:56:59.296Z,72.80
2023-03-20T00:59:31.960Z,71.30
2023-03-20T01:02:00.541Z,70.90
2023-03-20T01:04:36.788Z,71.70
2023-03-20T01:07:08.422Z,73.10
2023-03-20T01:09:37.926Z,72.70
2023-03-20T01:12:07.842Z,71.50
2023-03-20T01:14:36.488Z,71.20
2023-03-20T01:17:04.803Z,70.90
2023-03-20T01:19:32.861Z,73.80
2023-03-20T01:22:02.779Z,73.50
2023-03-20T01:24:30.927Z,73.60
2023-03-20T01:27:03.643Z,71.20
2023-03-20T01:29:33.137Z,71.50
2023-03-20T01:32:01.157Z,71.40
2023-03-20T01:34:29.258Z,70.50
2023-03-20T01:36:59.218Z,70.90
2023-03-20T01:39:33.590Z,69.70
2023-03-20T01:42:05.751Z,68.60
2023-03-20T01:44:36.417Z,68.20
2023-03-20T01:47:13.210Z,67.10
2023-03-20T01:50:22.254Z,66.80
2023-03-20T01:52:53.317Z,69.90
2023-03-20T01:55:22.900Z,66.80
2023-03-20T01:57:53.608Z,68.50
2023-03-20T02:00:23.893Z,69.20
2023-03-20T02:02:52.083Z,68.40
2023-03-20T02:05:23.020Z,67.80
2023-03-20T02:08:03.020Z,69.20
2023-03-20T02:10:32.056Z,71.70
2023-03-20T02:13:04.169Z,68.60
2023-03-20T02:15:33.269Z,69.00
2023-03-20T02:18:01.673Z,71.50
2023-03-20T02:20:46.988Z,70.20
2023-03-20T02:23:56.317Z,70.40
2023-03-20T02:26:40.118Z,71.80
2023-03-20T02:29:30.358Z,70.90
2023-03-20T02:32:33.959Z,71.10
2023-03-20T02:35:35.946Z,70.30
2023-03-20T02:38:27.245Z,63.80
2023-03-20T02:41:03.333Z,65.10
2023-03-20T02:43:42.328Z,66.70
2023-03-20T02:46:19.747Z,66.40
2023-03-20T02:48:55.625Z,68.40
2023-03-20T02:51:33.417Z,66.60
2023-03-20T02:54:09.071Z,63.40
2023-03-20T02:56:44.801Z,51.40
2023-03-20T02:59:21.801Z,49.70
2023-03-20T03:01:55.595Z,52.70
2023-03-20T03:04:27.392Z,53.60
2023-03-20T03:06:59.318Z,54.50
2023-03-20T03:09:32.922Z,59.40
2023-03-20T03:12:05.841Z,63.50
2023-03-20T03:14:38.795Z,65.60
2023-03-20T03:17:09.583Z,63.50
2023-03-20T03:19:39.819Z,69.50
2023-03-20T03:22:08.748Z,69.00
2023-03-20T03:24:41.896Z,68.80
2023-03-20T03:27:18.518Z,67.80
2023-03-20T03:29:51.484Z,70.40
2023-03-20T03:32:30.448Z,49.30
2023-03-20T03:35:00.719Z,35.80
2023-03-20T03:37:40.849Z,37.60
2023-03-20T03:40:21.477Z,27.30
2023-03-20T03:42:57.095Z,34.40
2023-03-20T03:45:31.506Z,39.80
2023-03-20T03:48:05.817Z,40.80
2023-03-20T03:50:38.785Z,44.90
2023-03-20T03:53:11.953Z,40.40
2023-03-20T03:55:44.930Z,44.40
2023-03-20T03:58:16.677Z,45.00
2023-03-20T04:00:47.959Z,23.90
2023-03-20T04:03:17.254Z,28.80
2023-03-20T04:05:47.390Z,36.30
2023-03-20T04:08:16.280Z,36.30
2023-03-20T04:10:45.999Z,37.90
2023-03-20T04:13:14.078Z,44.30
2023-03-20T04:15:42.431Z,46.30
2023-03-20T04:18:17.242Z,47.20
2023-03-20T04:20:45.683Z,45.80
2023-03-20T04:23:14.037Z,42.60
2023-03-20T04:25:42.611Z,55.20
2023-03-20T04:28:16.201Z,55.00
2023-03-20T04:30:48.174Z,44.00
2023-03-20T04:33:16.463Z,48.10
2023-03-20T04:35:44.662Z,33.80
2023-03-20T04:38:12.892Z,23.60
2023-03-20T04:40:41.255Z,23.10
2023-03-20T04:43:09.315Z,37.70
2023-03-20T04:45:39.495Z,49.00
2023-03-20T04:48:08.362Z,43.10
2023-03-20T04:50:36.481Z,37.00
2023-03-20T04:53:04.518Z,50.80
2023-03-20T04:55:32.678Z,52.80
2023-03-20T04:58:00.912Z,46.60
2023-03-20T05:00:28.976Z,41.20
2023-03-20T05:02:58.467Z,34.90
2023-03-20T05:05:27.057Z,49.70
2023-03-20T05:07:55.303Z,54.50
2023-03-20T05:10:23.425Z,49.40
2023-03-20T05:12:51.582Z,58.40
2023-03-20T05:15:19.721Z,73.50
2023-03-20T05:17:50.531Z,67.20
2023-03-20T05:20:21.561Z,59.80
2023-03-20T05:22:51.376Z,54.70
2023-03-20T05:25:19.550Z,89.70
2023-03-20T05:27:48.067Z,93.40
2023-03-20T05:30:16.868Z,95.40
2023-03-20T05:32:44.970Z,97.50
2023-03-20T05:35:13.446Z,94.80
2023-03-20T05:37:42.905Z,96.20
2023-03-20T05:40:13.581Z,95.60
2023-03-20T05:42:41.612Z,95.10
2023-03-20T05:45:10.626Z,95.30
2023-03-20T05:47:38.699Z,98.00
2023-03-20T05:50:07.437Z,97.20
2023-03-20T05:52:35.711Z,97.60
2023-03-20T05:55:05.791Z,98.10
2023-03-20T05:57:33.821Z,98.50
2023-03-20T06:00:01.880Z,98.00
2023-03-20T06:02:29.927Z,97.90
2023-03-20T06:04:58.074Z,97.70
2023-03-20T06:07:26.172Z,98.90
2023-03-20T06:09:54.250Z,99.90
2023-03-20T06:12:24.044Z,99.90
2023-03-20T06:14:52.087Z,99.90
2023-03-20T06:17:20.304Z,99.90
2023-03-20T06:19:48.417Z,99.90
2023-03-20T06:22:16.496Z,99.90
2023-03-20T06:24:44.665Z,99.90
2023-03-20T06:27:12.800Z,99.90
2023-03-20T06:29:42.201Z,99.90
2023-03-20T06:32:12.296Z,99.90
2023-03-20T06:34:40.364Z,99.90
2023-03-20T06:37:08.453Z,99.90
2023-03-20T06:39:36.844Z,99.90
2023-03-20T06:42:05.101Z,99.90
2023-03-20T06:44:33.152Z,99.90
2023-03-20T06:47:02.596Z,99.90
2023-03-20T06:49:30.701Z,99.90
2023-03-20T06:51:59.372Z,99.90
2023-03-20T06:54:28.049Z,99.90
2023-03-20T06:56:56.139Z,99.90
2023-03-20T06:59:24.582Z,99.90
2023-03-20T07:01:52.726Z,99.90
2023-03-20T07:04:22.342Z,99.90
2023-03-20T07:06:50.449Z,99.90
2023-03-20T07:09:18.638Z,99.90
2023-03-20T07:11:46.902Z,99.90
2023-03-20T07:14:15.005Z,99.90
2023-03-20T07:16:43.090Z,99.90
2023-03-20T07:19:13.137Z,99.90
2023-03-20T07:21:42.661Z,99.90
2023-03-20T07:24:10.519Z,99.90
2023-03-20T07:26:38.659Z,99.90
2023-03-20T07:29:06.746Z,99.90
2023-03-20T07:31:34.864Z,99.90
2023-03-20T07:34:02.971Z,99.90
2023-03-20T07:36:31.014Z,99.90
2023-03-20T07:39:00.711Z,99.90
2023-03-20T07:41:28.812Z,99.90
2023-03-20T07:43:56.862Z,99.90
2023-03-20T07:46:25.465Z,99.90
2023-03-20T07:48:53.788Z,99.90
2023-03-20T07:51:21.839Z,99.90
2023-03-20T07:53:49.906Z,99.90
2023-03-20T07:56:19.335Z,99.90
2023-03-20T07:58:47.195Z,99.90
2023-03-20T08:01:15.294Z,99.90
2023-03-20T08:03:43.577Z,99.90
2023-03-20T08:06:11.774Z,99.90
2023-03-20T08:08:40.549Z,99.90
2023-03-20T08:11:08.818Z,99.90
2023-03-20T08:13:38.282Z,99.90
2023-03-20T08:16:06.732Z,99.90
2023-03-20T08:18:34.910Z,99.90
2023-03-20T08:21:03.065Z,99.90
2023-03-20T08:23:31.217Z,99.80
2023-03-20T08:25:59.279Z,98.90
2023-03-20T08:28:45.954Z,97.70
2023-03-20T08:31:17.717Z,98.20
2023-03-20T08:33:46.386Z,97.80
2023-03-20T08:36:15.935Z,98.00
2023-03-20T08:38:44.506Z,97.40
2023-03-20T08:41:12.610Z,96.50
2023-03-20T08:43:41.056Z,96.50
2023-03-20T08:46:09.794Z,95.70
2023-03-20T08:48:39.354Z,95.40
2023-03-20T08:51:07.500Z,95.00
2023-03-20T08:53:35.603Z,94.30
2023-03-20T08:56:03.674Z,94.80
2023-03-20T08:58:31.792Z,94.10
2023-03-20T09:01:05.342Z,94.20
2023-03-20T09:03:33.441Z,92.70
2023-03-20T09:06:02.904Z,93.20
2023-03-20T09:08:32.097Z,93.20
2023-03-20T09:11:00.566Z,91.90
2023-03-20T09:13:28.630Z,91.80
2023-03-20T09:15:58.185Z,90.10
2023-03-20T09:18:26.987Z,87.30
2023-03-20T09:20:56.491Z,88.80
2023-03-20T09:23:26.018Z,85.60
2023-03-20T09:25:53.915Z,87.40
2023-03-20T09:28:21.961Z,86.20
2023-03-20T09:30:50.097Z,85.50
2023-03-20T09:33:18.756Z,86.20
2023-03-20T09:35:46.985Z,83.80
2023-03-20T09:38:15.591Z,85.30
2023-03-20T09:40:53.209Z,82.20
2023-03-20T09:43:34.117Z,82.30
2023-03-20T09:46:13.976Z,81.70
2023-03-20T09:48:47.530Z,82.50
2023-03-20T09:51:25.188Z,81.50
2023-03-20T09:53:59.288Z,80.90
2023-03-20T09:56:31.966Z,81.00
2023-03-20T09:59:02.426Z,82.40
2023-03-20T10:01:34.182Z,80.70
2023-03-20T10:04:07.632Z,80.00
2023-03-20T10:06:36.003Z,82.30
2023-03-20T10:09:13.083Z,80.50
2023-03-20T10:11:57.165Z,81.30
2023-03-20T10:14:34.884Z,81.50
2023-03-20T10:17:14.897Z,80.60
2023-03-20T10:19:47.220Z,80.10
2023-03-20T10:22:25.303Z,79.20
2023-03-20T10:24:57.725Z,76.80
2023-03-20T10:27:32.736Z,74.60
2023-03-20T10:30:20.935Z,72.60
2023-03-20T10:32:55.654Z,70.70
2023-03-20T10:35:29.702Z,68.70
2023-03-20T10:38:11.425Z,71.20
2023-03-20T10:40:41.688Z,72.10
2023-03-20T10:43:17.809Z,73.60
2023-03-20T10:45:49.277Z,70.80
2023-03-20T10:48:22.479Z,74.10
2023-03-20T10:50:54.709Z,73.50
2023-03-20T10:53:30.404Z,72.70
2023-03-20T10:56:01.833Z,71.10
2023-03-20T10:58:35.098Z,69.60
2023-03-20T11:01:03.483Z,71.40
2023-03-20T11:03:32.869Z,69.60
2023-03-20T11:06:09.706Z,67.40
2023-03-20T11:08:41.220Z,70.30
2023-03-20T11:11:09.880Z,69.40
2023-03-20T11:13:42.555Z,65.80
2023-03-20T11:16:21.275Z,67.00
2023-03-20T11:18:50.531Z,65.90
2023-03-20T11:21:20.551Z,65.90
2023-03-20T11:23:49.404Z,62.00
2023-03-20T11:26:19.923Z,58.90
2023-03-20T11:28:53.161Z,59.30
2023-03-20T11:31:26.934Z,60.40
2023-03-20T11:34:10.985Z,59.70
2023-03-20T11:36:41.302Z,59.70
2023-03-20T11:39:15.245Z,62.10
2023-03-20T11:41:49.099Z,62.70
2023-03-20T11:44:27.959Z,65.00
2023-03-20T11:46:57.882Z,63.80
2023-03-20T11:49:29.259Z,64.60
2023-03-20T11:52:01.930Z,63.80
2023-03-20T11:54:31.281Z,61.80
2023-03-20T11:57:00.400Z,63.30
2023-03-20T11:59:34.038Z,62.10
2023-03-20T12:02:03.955Z,62.80
2023-03-20T12:04:34.656Z,63.70
2023-03-20T12:07:11.105Z,63.50
2023-03-20T12:09:43.754Z,64.90
2023-03-20T12:12:25.406Z,66.10
2023-03-20T12:15:02.224Z,67.40
2023-03-20T12:17:43.529Z,67.20
2023-03-20T12:20:29.036Z,66.50
2023-03-20T12:23:03.883Z,67.50
2023-03-20T12:25:39.372Z,69.50
2023-03-20T12:28:15.418Z,62.00
2023-03-20T12:30:55.848Z,59.90
2023-03-20T12:33:44.038Z,61.30
2023-03-20T12:36:16.566Z,57.60
2023-03-20T12:38:46.432Z,59.40
2023-03-20T12:41:17.459Z,58.10
2023-03-20T12:44:01.113Z,54.70
2023-03-20T12:46:36.422Z,54.00
2023-03-20T12:49:14.073Z,55.70
2023-03-20T12:51:53.367Z,55.40
2023-03-20T12:54:28.535Z,55.00
2023-03-20T12:57:05.676Z,56.50
2023-03-20T12:59:45.906Z,58.40
2023-03-20T13:02:26.836Z,58.90
2023-03-20T13:05:03.054Z,59.80
2023-03-20T13:07:44.377Z,60.70
2023-03-20T13:10:21.724Z,61.60
2023-03-20T13:13:01.803Z,61.90
2023-03-20T13:15:42.227Z,62.90
2023-03-20T13:18:20.599Z,63.30
2023-03-20T13:20:52.813Z,63.90
2023-03-20T13:23:27.260Z,63.50
2023-03-20T13:26:11.517Z,63.90
2023-03-20T13:28:48.523Z,65.60
2023-03-20T13:31:27.085Z,66.40
2023-03-20T13:34:03.566Z,67.60
2023-03-20T13:36:50.896Z,70.10
2023-03-20T13:39:23.652Z,74.30
2023-03-20T13:41:52.156Z,77.90
2023-03-20T13:44:24.016Z,81.50
2023-03-20T13:46:55.192Z,87.50
2023-03-20T13:49:28.830Z,84.00
2023-03-20T13:52:02.437Z,83.20
2023-03-20T13:54:50.609Z,89.60
2023-03-20T13:57:27.977Z,88.50
2023-03-20T14:00:03.006Z,90.90
2023-03-20T14:02:42.004Z,91.20
2023-03-20T14:05:18.636Z,93.60
2023-03-20T14:07:49.448Z,93.60
2023-03-20T14:10:39.435Z,92.60
2023-03-20T14:13:14.454Z,93.60
2023-03-20T14:15:50.236Z,93.60
2023-03-20T14:18:22.272Z,92.50
2023-03-20T14:20:57.486Z,94.40
2023-03-20T14:23:35.556Z,94.50
2023-03-20T14:26:09.318Z,94.30
2023-03-20T14:28:54.600Z,94.40
2023-03-20T14:31:26.307Z,95.70
2023-03-20T14:34:09.362Z,97.30
2023-03-20T14:36:53.741Z,96.90
2023-03-20T14:39:46.054Z,97.30
2023-03-20T14:42:38.791Z,97.50
2023-03-20T14:45:39.709Z,99.00
2023-03-20T14:48:26.126Z,99.90
2023-03-20T14:51:10.426Z,99.90
2023-03-20T14:53:41.690Z,99.90
2023-03-20T14:56:12.552Z,99.90
2023-03-20T14:58:54.396Z,99.90
2023-03-20T15:01:54.414Z,99.90
2023-03-20T15:04:29.514Z,99.90
2023-03-20T15:07:00.517Z,99.90
2023-03-20T15:09:32.454Z,99.90
2023-03-20T15:12:04.368Z,99.90
2023-03-20T15:14:39.279Z,99.90
2023-03-20T15:17:07.334Z,99.90
2023-03-20T15:19:41.183Z,99.90
2023-03-20T15:22:17.483Z,99.90
2023-03-20T15:24:55.797Z,1.00
2023-03-20T15:27:29.439Z,1.00
2023-03-20T15:29:58.690Z,1.00
2023-03-20T15:32:26.859Z,1.00
2023-03-20T15:34:54.993Z,1.00
2023-03-20T15:37:25.488Z,1.00
2023-03-20T15:39:59.160Z,54.50
2023-03-20T15:42:28.070Z,16.30
2023-03-20T15:44:57.465Z,1.00
2023-03-20T15:47:26.796Z,1.00
2023-03-20T15:49:56.695Z,1.00
2023-03-20T15:52:31.955Z,24.60
2023-03-20T15:55:06.407Z,1.00
2023-03-20T15:57:37.382Z,7.30
2023-03-20T16:00:08.077Z,19.10
2023-03-20T16:02:38.178Z,1.00
2023-03-20T16:05:10.418Z,26.40
2023-03-20T16:07:38.600Z,1.00
2023-03-20T16:10:19.143Z,20.60
2023-03-20T16:12:50.287Z,45.70
2023-03-20T16:15:19.709Z,50.10
2023-03-20T16:17:48.628Z,82.90
2023-03-20T16:20:17.876Z,62.10
2023-03-20T16:22:47.259Z,79.70
2023-03-20T16:25:18.752Z,99.90
2023-03-20T16:27:50.423Z,99.90
2023-03-20T16:30:24.433Z,99.90
2023-03-20T16:32:59.424Z,99.90
2023-03-20T16:35:31.013Z,99.90
2023-03-20T16:38:00.741Z,99.90
2023-03-20T16:40:34.907Z,99.90
2023-03-20T16:43:12.992Z,99.90
2023-03-20T16:45:44.929Z,99.90
2023-03-20T16:48:26.070Z,99.90
2023-03-20T16:50:59.990Z,99.90
2023-03-20T16:53:32.102Z,99.90
2023-03-20T16:56:04.952Z,99.90
2023-03-20T16:58:35.127Z,95.80
2023-03-20T17:01:06.156Z,96.10
2023-03-20T17:03:38.109Z,97.10
2023-03-20T17:06:10.878Z,74.00
2023-03-20T17:08:43.238Z,57.00
2023-03-20T17:11:15.078Z,51.50
2023-03-20T17:13:43.942Z,66.80
2023-03-20T17:16:16.975Z,29.20
2023-03-20T17:18:46.796Z,46.00
2023-03-20T17:21:15.170Z,48.30
2023-03-20T17:23:43.237Z,15.40
2023-03-20T17:26:14.023Z,19.20
2023-03-20T17:28:42.512Z,28.60
2023-03-20T17:31:13.999Z,74.90
2023-03-20T17:33:42.116Z,13.60
2023-03-20T17:36:16.917Z,18.90
2023-03-20T17:38:45.019Z,19.20
2023-03-20T17:41:16.335Z,20.20
2023-03-20T17:43:44.753Z,25.20
2023-03-20T17:46:19.029Z,27.20
2023-03-20T17:48:47.851Z,32.30
2023-03-20T17:51:15.971Z,25.70
2023-03-20T17:53:44.061Z,35.30
2023-03-20T17:56:16.434Z,50.20
2023-03-20T17:58:45.672Z,54.70
2023-03-20T18:01:14.274Z,50.90
2023-03-20T18:03:42.532Z,66.60
2023-03-20T18:06:17.055Z,61.40
2023-03-20T18:08:45.416Z,85.00
2023-03-20T18:11:14.854Z,90.20
2023-03-20T18:13:43.295Z,93.00
2023-03-20T18:16:17.590Z,94.10
2023-03-20T18:18:46.143Z,96.50
2023-03-20T18:21:16.675Z,98.80
2023-03-20T18:23:44.931Z,96.10
2023-03-20T18:26:20.593Z,97.30
2023-03-20T18:28:49.013Z,97.20
2023-03-20T18:31:18.938Z,96.30
2023-03-20T18:33:48.511Z,97.80
2023-03-20T18:36:18.107Z,97.10
2023-03-20T18:38:45.958Z,99.90
2023-03-20T18:41:14.059Z,99.90
2023-03-20T18:43:44.660Z,98.70
2023-03-20T18:46:15.195Z,99.90
2023-03-20T18:48:44.195Z,99.70
2023-03-20T18:51:12.652Z,99.90
2023-03-20T18:53:41.695Z,99.80
2023-03-20T18:56:15.400Z,99.40
2023-03-20T18:58:45.651Z,95.80
2023-03-20T19:01:15.547Z,97.00
2023-03-20T19:03:44.705Z,99.60
2023-03-20T19:06:15.522Z,98.90
2023-03-20T19:08:44.353Z,97.80
2023-03-20T19:11:17.845Z,99.10
2023-03-20T19:13:51.010Z,98.80
2023-03-20T19:16:25.349Z,99.50
2023-03-20T19:18:54.185Z,98.80
2023-03-20T19:21:25.984Z,98.10
2023-03-20T19:23:55.192Z,98.30
2023-03-20T19:26:25.936Z,97.80
2023-03-20T19:28:57.227Z,98.40
2023-03-20T19:31:26.435Z,96.80
2023-03-20T19:33:56.008Z,99.80
2023-03-20T19:36:26.757Z,99.90
2023-03-20T19:38:55.731Z,99.90
2023-03-20T19:41:24.138Z,97.90
2023-03-20T19:43:55.231Z,98.20
2023-03-20T19:46:39.146Z,98.70
2023-03-20T19:49:19.684Z,97.70
2023-03-20T19:51:48.439Z,97.40
2023-03-20T19:54:16.662Z,96.30
2023-03-20T19:56:44.778Z,99.30
2023-03-20T19:59:16.198Z,98.40
2023-03-20T20:01:46.898Z,98.10
2023-03-20T20:04:16.134Z,97.90
2023-03-20T20:06:47.158Z,96.90
2023-03-20T20:09:16.131Z,97.50
2023-03-20T20:11:44.256Z,96.00
2023-03-20T20:14:14.981Z,93.70
2023-03-20T20:16:45.344Z,94.90
2023-03-20T20:19:14.962Z,95.40
2023-03-20T20:24:31.474Z,96.20
2023-03-20T20:27:15.949Z,95.40
2023-03-20T20:29:46.922Z,94.10
2023-03-20T20:32:15.294Z,94.30
2023-03-20T20:40:24.742Z,95.90
2023-03-20T20:42:56.118Z,96.50
2023-03-20T20:45:26.376Z,97.80
2023-03-20T20:47:55.286Z,97.10
2023-03-20T20:50:28.319Z,96.20
2023-03-20T20:52:56.916Z,97.30
2023-03-20T20:55:25.658Z,99.90
2023-03-20T20:57:55.544Z,98.10
2023-03-20T21:00:37.134Z,99.30
2023-03-20T21:03:09.596Z,99.80
2023-03-20T21:05:42.861Z,99.20
2023-03-20T21:08:11.972Z,99.30
2023-03-20T21:10:40.207Z,99.90
2023-03-20T21:13:08.550Z,99.00
2023-03-20T21:15:37.329Z,99.70
2023-03-20T21:18:05.796Z,99.90
2023-03-20T21:20:34.573Z,98.40
2023-03-20T21:23:04.031Z,99.60
2023-03-20T21:25:40.017Z,99.90
2023-03-20T21:28:09.898Z,99.60
2023-03-20T21:30:44.260Z,99.90
2023-03-20T21:33:25.085Z,99.90
2023-03-20T21:35:54.411Z,99.10
2023-03-20T21:41:12.085Z,97.60
2023-03-20T21:43:40.775Z,99.60
2023-03-20T22:03:10.383Z,99.80
2023-03-20T22:06:19.482Z,99.40
2023-03-20T22:14:56.763Z,98.70
2023-03-20T22:17:51.107Z,97.90
2023-03-20T22:26:05.488Z,97.50
2023-03-20T22:31:39.024Z,97.90
2023-03-20T22:37:30.142Z,97.90
2023-03-20T22:40:22.623Z,98.10
2023-03-20T22:45:04.022Z,97.70
2023-03-20T22:47:32.623Z,97.30
2023-03-20T22:50:00.714Z,96.70
2023-03-20T22:52:42.030Z,97.60
2023-03-20T22:55:13.961Z,96.40
2023-03-20T22:57:52.971Z,97.50
2023-03-20T23:00:29.234Z,97.70
2023-03-20T23:03:06.803Z,97.10
2023-03-20T23:05:42.318Z,97.90
2023-03-20T23:08:12.793Z,97.60
2023-03-20T23:10:44.281Z,97.80
2023-03-20T23:13:12.483Z,98.30
2023-03-20T23:15:41.935Z,99.40
2023-03-20T23:18:10.611Z,99.60
2023-03-20T23:20:38.810Z,99.70
2023-03-20T23:23:06.983Z,99.90
2023-03-20T23:25:40.016Z,99.90
2023-03-20T23:28:09.320Z,99.90
2023-03-20T23:30:46.570Z,99.90
2023-03-20T23:33:17.518Z,99.90
2023-03-20T23:35:46.338Z,99.90
2023-03-20T23:38:14.444Z,99.90
2023-03-20T23:40:42.487Z,99.90
2023-03-20T23:43:10.605Z,99.10
2023-03-20T23:45:38.899Z,99.30
2023-03-20T23:48:07.319Z,99.90
2023-03-20T23:50:51.853Z,99.90
2023-03-20T23:53:21.411Z,99.90
2023-03-20T23:55:51.352Z,99.90
2023-03-20T23:58:20.547Z,99.90
